Аэропорт: Павлодар. Павлодар

ICAO: UASP

METAR:
2019-11-21 09:30:00
UASP 210930Z 25006MPS CAVOK M19/M24 Q1036 R21/0///60 NOSIG RMK QFE765/1021
METAR:
2019-11-21 08:00:00
TAF UASP 210800Z 2109/2118 27008MPS 9999 BKN020 TEMPO 2109/2113 3100 -SN FU BKN011